Nearby METAR Reports

 

KHAO - Hamilton, Ohio, USA
Distance from station: WSW 7mi, 11km
Updated: 10,02/2022 5:53pm
Clear
Clear
 Wind from NE
Wind: NE 15 mph , 24 km/h, Gust: 21 mph , 33 km/h
Temperature: 66°F , 19°C
Dew Point: 48°F , 9°C
Humidity: 52%
Barometer: 30.22 inHg , 1023.4 hPa
Clouds: Clear
Visibility: 10 miles , 16 km
2022/10/02 21:53 KHAO 022153Z AUTO 04013G18KT 10SM CLR 19/09 A3022 RMK AO2 SLP232 T01940094
KI68 - Lebanon, Ohio, USA
Distance from station: ENE 9mi, 15km
Updated: 10,02/2022 6:35pm
Clear
Clear
 Wind from NNE
Wind: NNE 9 mph , 15 km/h, Gust: 17 mph , 28 km/h
Temperature: 63°F , 17°C
Dew Point: 50°F , 10°C
Humidity: 64%
Barometer: 30.23 inHg , 1023.7 hPa
Clouds: Clear
Visibility: 10 miles , 16 km
2022/10/02 22:35 KI68 022235Z AUTO 03008G15KT 10SM CLR 17/10 A3023 RMK AO1 T01710098
KMWO - Middletown/Hook, Ohio, USA
Distance from station: N 10mi, 16km
Updated: 10,02/2022 3:35pm
NOT Current

 
2022/10/02 19:35 KMWO 021935Z AUTO RMK AO2 PWINO TSNO
 
KMGY - Dayton, Ohio, USA
Distance from station: NNE 17mi, 27km
Updated: 10,02/2022 5:53pm
Clear
Clear
 Wind from NNE
Wind: NNE 17 mph , 28 km/h, Gust: 24 mph , 39 km/h
Temperature: 64°F , 18°C
Dew Point: 48°F , 9°C
Humidity: 56%
Barometer: 30.21 inHg , 1023 hPa
Clouds: Clear
Visibility: 10 miles , 16 km
2022/10/02 21:53 KMGY 022153Z AUTO 03015G21KT 10SM CLR 18/09 A3021 RMK AO2 SLP229 T01830094
KLUK - Cincinnat/Lunken, Ohio, USA
Distance from station: S 20mi, 33km
Updated: 10,02/2022 5:53pm
Partly cloudy
Partly cloudy
 Wind from NE
Wind: NE 12 mph , 19 km/h, Gust: 21 mph , 33 km/h
Temperature: 70°F , 21°C
Dew Point: 48°F , 9°C
Humidity: 46%
Barometer: 30.20 inHg , 1022.7 hPa
Clouds: Partly cloudy
Visibility: 10 miles , 16 km
Cloud details: Partly cloudy 4700 ft
2022/10/02 21:53 KLUK 022153Z 04010G18KT 10SM SCT047 21/09 A3020 RMK AO2 SLP225 T02060094
KI67 - Harrison, Ohio, USA
Distance from station: WSW 22mi, 35km
Updated: 10,02/2022 6:35pm
Clear
Clear
 Wind from NNE
Wind: NNE 12 mph , 19 km/h, Gust: 17 mph , 28 km/h
Temperature: 64°F , 18°C
Dew Point: 46°F , 8°C
Humidity: 52%
Barometer: 30.22 inHg , 1023.4 hPa
Clouds: Clear
Visibility: 10 miles , 16 km
2022/10/02 22:35 KI67 022235Z AUTO 03010G15KT 10SM CLR 18/08 A3022 RMK AO1
 
KOXD - Oxford, Ohio, USA
Distance from station: WNW 22mi, 35km
Updated: 10,02/2022 6:35pm
Clear
Clear
 Wind from NE
Wind: NE 7 mph , 11 km/h, Gust: 18 mph , 30 km/h
Temperature: 68°F , 20°C
Dew Point: 45°F , 7°C
Humidity: 43%
Barometer: 30.23 inHg , 1023.7 hPa
Clouds: Clear
Visibility: 10 miles , 16 km
2022/10/02 22:35 KOXD 022235Z AUTO 04006G16KT 10SM CLR 20/07 A3023 RMK AO2 T01970072
KI69 - Batavia, Ohio, USA
Distance from station: SSE 23mi, 38km
Updated: 10,02/2022 6:35pm
Partly cloudy
Partly cloudy
 Wind from NNE
Wind: NNE 12 mph , 19 km/h, Gust: 18 mph , 30 km/h
Temperature: 64°F , 18°C
Dew Point: 48°F , 9°C
Humidity: 56%
Barometer: 30.22 inHg , 1023.4 hPa
Clouds: Partly cloudy
Visibility: 10 miles , 16 km
Cloud details: Partly cloudy 4100 ft
2022/10/02 22:35 KI69 022235Z AUTO 03010G16KT 10SM SCT041 18/09 A3022 RMK AO2 T01800093
KCVG - Covington, Kentucky, USA
Distance from station: SSW 28mi, 45km
Updated: 10,02/2022 5:52pm
Few Clouds
Few Clouds
 Wind from NNE
Wind: NNE 14 mph , 22 km/h
Temperature: 68°F , 20°C
Dew Point: 48°F , 9°C
Humidity: 49%
Barometer: 30.20 inHg , 1022.7 hPa
Clouds: Few Clouds
Visibility: 10 miles , 16 km
Cloud details: Few Clouds 4000 ft
2022/10/02 21:52 KCVG 022152Z 02012KT 10SM FEW040 20/09 A3020 RMK AO2 SLP221 T02000094
 
KI19 - Dayton-Jackson, Ohio, USA
Distance from station: NE 29mi, 47km
Updated: 10,02/2022 6:35pm
Clear
Clear
 Wind from NNE
Wind: NNE 8 mph , 13 km/h, Gust: 17 mph , 28 km/h
Temperature: 61°F , 16°C
Dew Point: 50°F , 10°C
Humidity: 68%
Barometer: 30.23 inHg , 1023.7 hPa
Clouds: Clear
Visibility: 10 miles , 16 km
2022/10/02 22:35 KI19 022235Z AUTO 02007G15KT 350V070 10SM CLR 16/10 A3023 RMK AO2
KILN - Wilmington, Ohio, USA
Distance from station: E 32mi, 52km
Updated: 10,02/2022 5:54pm
Few Clouds
Few Clouds
 Wind from NNE
Wind: NNE 18 mph , 30 km/h, Gust: 25 mph , 41 km/h
Temperature: 63°F , 17°C
Dew Point: 48°F , 9°C
Humidity: 59%
Barometer: 30.21 inHg , 1023 hPa
Clouds: Few Clouds
Visibility: 10 miles , 16 km
Cloud details: Few Clouds 3500 ft
2022/10/02 21:54 KILN 022154Z AUTO 02016G22KT 10SM FEW035 17/09 A3021 RMK AO2 SLP234 T01720089
KRID - Richmond, Indiana, USA
Distance from station: NW 34mi, 55km
Updated: 10,02/2022 6:55pm
Clear
Clear
 Wind from NE
Wind: NE 12 mph , 19 km/h
Temperature: 61°F , 16°C
Dew Point: 50°F , 10°C
Humidity: 68%
Barometer: 30.25 inHg , 1024.4 hPa
Clouds: Clear
Visibility: 10 miles , 16 km
2022/10/02 22:55 KRID 022255Z AUTO 04010KT 10SM CLR 16/10 A3025 RMK AO2
 
KFFO - Wright Paterson, Ohio, USA
Distance from station: NNE 35mi, 57km
Updated: 10,02/2022 5:55pm
Clear
Clear
 Wind from N
Wind: N 14 mph , 22 km/h
Temperature: 63°F , 17°C
Dew Point: 48°F , 9°C
Humidity: 59%
Barometer: 30.20 inHg , 1022.7 hPa
Clouds: Clear
Visibility: 10 miles , 16 km
2022/10/02 21:55 KFFO 022155Z AUTO 01012KT 10SM CLR 17/09 A3020 RMK AO2 SLP230 T01660088
KDAY - Dayton, Ohio, USA
Distance from station: NNE 36mi, 58km
Updated: 10,02/2022 5:56pm
Few Clouds
Few Clouds
 Wind from NNE
Wind: NNE 22 mph , 35 km/h, Gust: 29 mph , 46 km/h
Temperature: 63°F , 17°C
Dew Point: 46°F , 8°C
Humidity: 56%
Barometer: 30.25 inHg , 1024.4 hPa
Clouds: Few Clouds
Visibility: 10 miles , 16 km
Cloud details: Few Clouds 3400 ft
2022/10/02 21:56 KDAY 022156Z 02019G25KT 10SM FEW034 17/08 A3025 RMK AO2 PK WND 04026/2139 SLP242 T01670078
KSGH - Springfield Muni, Ohio, USA
Distance from station: NE 43mi, 69km
Updated: 10,02/2022 5:56pm
Few Clouds
Few Clouds
 Wind from NNE
Wind: NNE 17 mph , 28 km/h, Gust: 23 mph , 37 km/h
Temperature: 61°F , 16°C
Dew Point: 48°F , 9°C
Humidity: 63%
Barometer: 30.23 inHg , 1023.7 hPa
Clouds: Few Clouds
Visibility: 10 miles , 16 km
Cloud details: Few Clouds 3100 ft
2022/10/02 21:56 KSGH 022156Z AUTO 02015G20KT 10SM FEW031 16/09 A3023 RMK AO2 SLP240 T01610094
 
KK62 - Falmouth, Kentucky, USA
Distance from station: S 48mi, 77km
Updated: 10,02/2022 6:15pm
Mostly cloudy
Mostly cloudy
 Wind from NNE
Wind: NNE 10 mph , 17 km/h, Gust: 16 mph , 26 km/h
Temperature: 64°F , 18°C
Dew Point: 48°F , 9°C
Humidity: 56%
Barometer: 30.19 inHg , 1022.4 hPa
Clouds: Mostly cloudy
Visibility: 10 miles , 16 km
Cloud details: Mostly cloudy 4300 ft
2022/10/02 22:15 KK62 022215Z AUTO 02009G14KT 10SM BKN043 18/09 A3019 RMK AO2
KI23 - Washington Court, Ohio, USA
Distance from station: ENE 54mi, 86km
Updated: 10,02/2022 6:35pm
Clear
Clear
 Wind from N
Wind: N 15 mph , 24 km/h, Gust: 22 mph , 35 km/h
Temperature: 59°F , 15°C
Dew Point: 46°F , 8°C
Humidity: 63%
Barometer: 30.22 inHg , 1023.4 hPa
Clouds: Clear
Visibility: 10 miles , 16 km
2022/10/02 22:35 KI23 022235Z AUTO 36013G19KT 10SM CLR 15/08 A3022 RMK AO1
KVES - Versailles, Ohio, USA
Distance from station: N 56mi, 90km
Updated: 10,02/2022 6:15pm
Clear
Clear
 Wind from NNE
Wind: NNE 14 mph , 22 km/h, Gust: 20 mph , 31 km/h
Temperature: 63°F , 17°C
Dew Point: 41°F , 5°C
Humidity: 45%
Barometer: 30.25 inHg , 1024.4 hPa
Clouds: Clear
Visibility: 7 miles , 11 km
2022/10/02 22:15 KVES 022215Z AUTO 03012G17KT 7SM CLR 17/05 A3025 RMK AO2
 
KI74 - Urbana, Ohio, USA
Distance from station: NNE 62mi, 99km
Updated: 10,02/2022 6:35pm

 Wind from NNE
Wind: NNE 10 mph , 17 km/h
Temperature: 57°F , 14°C
Dew Point: 46°F , 8°C
Humidity: 67%
Barometer: 30.25 inHg , 1024.4 hPa
Visibility: 10 miles , 16 km
2022/10/02 22:35 KI74 022235Z AUTO 03009KT 10SM 14/08 A3025 RMK AO2
KUYF - London, Ohio, USA
Distance from station: NE 62mi, 100km
Updated: 10,02/2022 6:15pm
Clear
Clear
 Wind from N
Wind: N 13 mph , 20 km/h, Gust: 22 mph , 35 km/h
Temperature: 59°F , 15°C
Dew Point: 41°F , 5°C
Humidity: 51%
Barometer: 30.23 inHg , 1023.7 hPa
Clouds: Clear
Visibility: 10 miles , 16 km
2022/10/02 22:15 KUYF 022215Z AUTO 01011G19KT 10SM CLR 15/05 A3023 RMK AO2